Time;durP1;ratioP1;P1;durP2;ratioP2;P2;SDS_P1;SDS_P2;PMS_P1;PMS_P2;Temp;Humidity;BMP_temperature;BMP_pressure;BME280_temperature;BME280_humidity;BME280_pressure;Samples;Min_cycle;Max_cycle;Signal;HPM_P1;HPM_P2
2023/12/29 00:00:30;;;;;;;215.60;32.13;;;;;;;;;;4976592;28;20260;-55
2023/12/29 00:02:55;;;;;;;223.20;33.10;;;;;;;;;;4987659;28;20204;-55
2023/12/29 00:05:21;;;;;;;216.23;31.50;;;;;;;;;;4983528;28;20228;-57
2023/12/29 00:07:47;;;;;;;183.93;26.60;;;;;;;;;;4981719;28;20244;-55
2023/12/29 00:10:13;;;;;;;179.90;26.27;;;;;;;;;;4975666;28;20221;-58
2023/12/29 00:12:39;;;;;;;180.70;25.40;;;;;;;;;;4986534;28;20186;-57
2023/12/29 00:15:06;;;;;;;221.40;34.03;;;;;;;;;;4988123;28;20210;-57
2023/12/29 00:17:32;;;;;;;202.03;29.40;;;;;;;;;;4981158;28;20213;-57
2023/12/29 00:19:58;;;;;;;200.97;29.70;;;;;;;;;;4983014;28;20312;-55
2023/12/29 00:22:25;;;;;;;262.93;41.53;;;;;;;;;;4973893;28;20221;-57
2023/12/29 00:24:51;;;;;;;174.17;25.40;;;;;;;;;;4976688;28;20220;-57
2023/12/29 00:27:17;;;;;;;188.27;27.40;;;;;;;;;;4984632;28;20193;-57
2023/12/29 00:29:43;;;;;;;172.73;24.57;;;;;;;;;;4989303;28;20666;-57
2023/12/29 00:32:09;;;;;;;197.23;29.00;;;;;;;;;;4985363;28;20268;-57
2023/12/29 00:34:37;;;;;;;198.30;29.63;;;;;;;;;;4980155;28;20218;-57
2023/12/29 00:37:03;;;;;;;217.03;32.30;;;;;;;;;;4980841;28;20531;-57
2023/12/29 00:39:30;;;;;;;276.30;41.20;;;;;;;;;;4978431;28;20745;-57
2023/12/29 00:41:57;;;;;;;204.20;29.80;;;;;;;;;;4983692;28;20345;-57
2023/12/29 00:44:23;;;;;;;223.40;32.07;;;;;;;;;;4976523;28;20575;-57
2023/12/29 00:46:49;;;;;;;190.43;27.20;;;;;;;;;;4979512;28;20688;-56
2023/12/29 00:49:15;;;;;;;180.23;25.57;;;;;;;;;;4979650;28;20660;-57
2023/12/29 00:51:41;;;;;;;157.60;23.33;;;;;;;;;;4978378;28;20185;-56
2023/12/29 00:54:08;;;;;;;193.47;28.93;;;;;;;;;;4978968;28;20263;-57
2023/12/29 00:56:33;;;;;;;231.07;34.27;;;;;;;;;;4975679;28;20261;-57
2023/12/29 00:58:59;;;;;;;295.47;44.43;;;;;;;;;;4982319;28;20237;-57
2023/12/29 01:01:25;;;;;;;204.77;28.73;;;;;;;;;;4977558;28;20224;-56
2023/12/29 01:03:54;;;;;;;197.93;30.20;;;;;;;;;;4977813;28;20213;-57
2023/12/29 01:06:20;;;;;;;176.87;25.93;;;;;;;;;;4979771;28;20677;-57
2023/12/29 01:08:46;;;;;;;202.30;28.77;;;;;;;;;;4980048;28;20241;-57
2023/12/29 01:11:12;;;;;;;242.93;36.97;;;;;;;;;;4965385;28;20213;-57
2023/12/29 01:13:38;;;;;;;204.63;29.23;;;;;;;;;;4977879;28;20214;-56
2023/12/29 01:16:05;;;;;;;209.87;31.17;;;;;;;;;;4977436;28;20407;-57
2023/12/29 01:18:32;;;;;;;228.40;32.90;;;;;;;;;;4979021;28;20543;-57
2023/12/29 01:20:58;;;;;;;196.03;27.57;;;;;;;;;;4976912;28;20507;-57
2023/12/29 01:23:24;;;;;;;212.43;30.97;;;;;;;;;;4976070;28;20642;-57
2023/12/29 01:25:50;;;;;;;189.03;27.60;;;;;;;;;;4977694;28;20213;-57
2023/12/29 01:28:16;;;;;;;207.07;30.80;;;;;;;;;;4975091;28;20280;-57
2023/12/29 01:30:42;;;;;;;167.83;25.10;;;;;;;;;;4982945;28;20668;-57
2023/12/29 01:33:08;;;;;;;207.70;31.60;;;;;;;;;;4978693;28;20271;-57
2023/12/29 01:35:34;;;;;;;190.20;27.43;;;;;;;;;;4980654;28;20287;-57
2023/12/29 01:38:00;;;;;;;181.83;26.60;;;;;;;;;;4977144;28;20721;-57
2023/12/29 01:40:26;;;;;;;233.23;36.57;;;;;;;;;;4972918;28;20241;-57
2023/12/29 01:42:52;;;;;;;179.77;26.00;;;;;;;;;;4982163;28;20652;-57
2023/12/29 01:45:22;;;;;;;265.40;40.03;;;;;;;;;;4980221;28;20604;-57
2023/12/29 01:47:48;;;;;;;211.20;31.63;;;;;;;;;;4977164;28;20608;-57
2023/12/29 01:50:14;;;;;;;252.83;37.00;;;;;;;;;;4975193;28;20303;-57
2023/12/29 01:52:41;;;;;;;181.43;26.00;;;;;;;;;;4977092;28;20434;-57
2023/12/29 01:55:07;;;;;;;190.03;27.33;;;;;;;;;;4957097;28;20229;-56
2023/12/29 01:57:35;;;;;;;187.07;27.53;;;;;;;;;;4971488;28;20203;-57
2023/12/29 02:00:01;;;;;;;212.83;33.07;;;;;;;;;;4975640;28;20974;-52
2023/12/29 02:02:27;;;;;;;204.87;30.57;;;;;;;;;;4974669;28;20221;-52
2023/12/29 02:04:53;;;;;;;199.77;28.73;;;;;;;;;;4981680;28;20220;-52
2023/12/29 02:07:19;;;;;;;222.13;32.30;;;;;;;;;;4978848;28;20621;-52
2023/12/29 02:09:45;;;;;;;236.53;34.23;;;;;;;;;;4973824;28;20767;-51
2023/12/29 02:12:11;;;;;;;235.03;32.93;;;;;;;;;;4975784;28;20231;-52
2023/12/29 02:14:37;;;;;;;198.37;27.53;;;;;;;;;;4977754;28;20320;-52
2023/12/29 02:17:16;;;;;;;229.40;32.87;;;;;;;;;;4972378;28;20241;-52
2023/12/29 02:19:46;;;;;;;206.67;29.53;;;;;;;;;;4974307;28;20699;-52
2023/12/29 02:22:12;;;;;;;240.27;34.77;;;;;;;;;;4974383;28;20241;-52
2023/12/29 02:24:39;;;;;;;255.30;37.53;;;;;;;;;;4973220;28;20654;-52
2023/12/29 02:30:24;;;;;;;234.40;38.00;;;;;;;;;;4981775;28;20216;-52
2023/12/29 02:32:53;;;;;;;195.47;27.70;;;;;;;;;;4981798;28;20668;-52
2023/12/29 02:35:20;;;;;;;217.53;30.93;;;;;;;;;;4975923;28;20857;-52
2023/12/29 02:37:46;;;;;;;205.47;29.27;;;;;;;;;;4973164;28;20301;-52
2023/12/29 02:40:12;;;;;;;209.50;29.63;;;;;;;;;;4976490;28;20218;-52
2023/12/29 02:42:38;;;;;;;198.90;28.63;;;;;;;;;;4974499;28;20197;-52
2023/12/29 02:45:04;;;;;;;229.73;32.37;;;;;;;;;;4972327;28;20185;-52
2023/12/29 02:47:30;;;;;;;183.33;26.40;;;;;;;;;;4989673;28;20229;-52
2023/12/29 02:49:56;;;;;;;200.00;28.43;;;;;;;;;;4972136;28;20307;-52
2023/12/29 02:52:22;;;;;;;219.67;31.30;;;;;;;;;;4980181;28;20226;-52
2023/12/29 02:54:48;;;;;;;204.67;28.73;;;;;;;;;;4976847;28;20491;-52
2023/12/29 02:57:14;;;;;;;272.43;40.53;;;;;;;;;;4972110;28;20572;-52
2023/12/29 02:59:40;;;;;;;218.27;30.77;;;;;;;;;;4986118;28;20252;-52
2023/12/29 03:02:06;;;;;;;148.50;21.10;;;;;;;;;;4973982;28;20720;-52
2023/12/29 03:04:32;;;;;;;201.03;28.20;;;;;;;;;;4979948;28;20297;-51
2023/12/29 03:06:58;;;;;;;192.53;27.03;;;;;;;;;;4981830;28;20217;-52
2023/12/29 03:09:24;;;;;;;317.33;48.13;;;;;;;;;;4983394;28;20220;-52
2023/12/29 03:11:50;;;;;;;194.10;28.20;;;;;;;;;;4985287;28;20587;-52
2023/12/29 03:14:16;;;;;;;196.90;29.60;;;;;;;;;;4988328;28;20223;-52
2023/12/29 03:16:42;;;;;;;202.40;29.27;;;;;;;;;;4978968;28;20316;-52
2023/12/29 03:19:08;;;;;;;211.83;30.13;;;;;;;;;;4979069;28;20222;-52
2023/12/29 03:21:33;;;;;;;241.47;35.67;;;;;;;;;;4978614;28;20280;-52
2023/12/29 03:23:59;;;;;;;188.53;26.53;;;;;;;;;;4986884;28;20273;-52
2023/12/29 03:26:25;;;;;;;208.87;31.33;;;;;;;;;;4975807;28;20304;-52
2023/12/29 03:28:51;;;;;;;262.47;38.50;;;;;;;;;;4976277;28;20319;-52
2023/12/29 03:31:17;;;;;;;259.67;39.67;;;;;;;;;;4980196;28;20214;-52
2023/12/29 03:33:44;;;;;;;239.03;35.17;;;;;;;;;;4980323;28;20268;-52
2023/12/29 03:36:10;;;;;;;182.77;25.60;;;;;;;;;;4980254;28;20225;-52
2023/12/29 03:38:36;;;;;;;191.30;27.00;;;;;;;;;;4978800;28;20524;-52
2023/12/29 03:41:02;;;;;;;212.40;29.83;;;;;;;;;;4974626;28;20216;-52
2023/12/29 03:43:28;;;;;;;215.13;30.23;;;;;;;;;;4981356;28;20217;-52
2023/12/29 03:45:54;;;;;;;179.17;25.53;;;;;;;;;;4982504;28;20247;-52
2023/12/29 03:48:20;;;;;;;287.03;40.73;;;;;;;;;;4975640;28;20583;-52
2023/12/29 03:50:46;;;;;;;212.53;29.47;;;;;;;;;;4980704;28;20221;-52
2023/12/29 03:53:12;;;;;;;185.97;26.20;;;;;;;;;;4979268;28;20585;-52
2023/12/29 03:55:38;;;;;;;288.87;42.50;;;;;;;;;;4970698;28;20572;-52
2023/12/29 03:58:04;;;;;;;199.50;27.83;;;;;;;;;;4982704;28;20209;-52
2023/12/29 04:00:30;;;;;;;239.87;33.53;;;;;;;;;;4981454;28;20217;-52
2023/12/29 04:02:56;;;;;;;173.07;24.20;;;;;;;;;;4979218;28;20198;-52
2023/12/29 04:05:22;;;;;;;241.83;33.97;;;;;;;;;;4978046;28;20248;-51
2023/12/29 04:07:48;;;;;;;216.27;30.63;;;;;;;;;;4974724;28;20214;-52
2023/12/29 04:10:14;;;;;;;206.43;29.60;;;;;;;;;;4977960;28;20576;-52
2023/12/29 04:12:39;;;;;;;196.40;28.07;;;;;;;;;;4979103;28;20189;-52
2023/12/29 04:15:06;;;;;;;236.43;33.63;;;;;;;;;;4978353;28;20210;-52
2023/12/29 04:17:32;;;;;;;243.23;34.90;;;;;;;;;;4981342;28;20240;-52
2023/12/29 04:19:58;;;;;;;203.17;27.50;;;;;;;;;;4977575;28;20952;-52
2023/12/29 04:22:24;;;;;;;213.47;30.17;;;;;;;;;;4978075;28;20209;-52
2023/12/29 04:24:49;;;;;;;205.37;28.80;;;;;;;;;;4984380;28;20313;-52
2023/12/29 04:27:16;;;;;;;217.17;30.07;;;;;;;;;;4974749;28;20197;-51
2023/12/29 04:29:41;;;;;;;214.33;29.80;;;;;;;;;;4988396;28;21778;-51
2023/12/29 04:32:07;;;;;;;205.93;29.17;;;;;;;;;;4984593;28;20695;-51
2023/12/29 04:34:33;;;;;;;234.03;33.23;;;;;;;;;;4980757;28;20224;-51
2023/12/29 04:36:59;;;;;;;239.47;35.90;;;;;;;;;;4979472;28;20210;-51
2023/12/29 04:39:25;;;;;;;325.00;48.03;;;;;;;;;;4972743;28;20221;-51
2023/12/29 04:41:51;;;;;;;213.20;30.00;;;;;;;;;;4981243;28;20217;-51
2023/12/29 04:44:17;;;;;;;198.57;27.60;;;;;;;;;;4982972;28;20209;-51
2023/12/29 04:46:43;;;;;;;163.83;22.93;;;;;;;;;;4983662;28;20795;-51
2023/12/29 04:49:09;;;;;;;180.93;24.77;;;;;;;;;;4976120;28;20223;-51
2023/12/29 04:51:35;;;;;;;212.37;29.97;;;;;;;;;;4982053;28;20198;-51
2023/12/29 04:54:01;;;;;;;205.07;29.53;;;;;;;;;;4983057;28;20259;-51
2023/12/29 04:56:27;;;;;;;220.60;30.87;;;;;;;;;;4974024;28;20704;-51
2023/12/29 04:58:53;;;;;;;201.17;28.50;;;;;;;;;;4981370;28;20222;-51
2023/12/29 05:01:18;;;;;;;255.17;36.90;;;;;;;;;;4963598;28;20241;-51
2023/12/29 05:03:44;;;;;;;193.87;28.73;;;;;;;;;;4984408;28;20467;-51
2023/12/29 05:06:10;;;;;;;201.87;28.83;;;;;;;;;;4979847;28;20190;-51
2023/12/29 05:08:36;;;;;;;198.10;28.17;;;;;;;;;;4977805;28;20570;-51
2023/12/29 05:11:02;;;;;;;196.67;27.67;;;;;;;;;;4972810;28;20684;-50
2023/12/29 05:13:29;;;;;;;205.47;29.17;;;;;;;;;;4983086;28;20228;-51
2023/12/29 05:15:55;;;;;;;240.03;33.63;;;;;;;;;;4975785;28;20228;-51
2023/12/29 05:18:21;;;;;;;202.83;28.27;;;;;;;;;;4979811;28;20376;-51
2023/12/29 05:20:47;;;;;;;248.07;35.00;;;;;;;;;;4977904;28;20209;-51
2023/12/29 05:23:13;;;;;;;223.00;30.87;;;;;;;;;;4980735;28;20284;-51
2023/12/29 05:25:39;;;;;;;230.93;33.13;;;;;;;;;;4974963;28;20746;-51
2023/12/29 05:28:05;;;;;;;193.60;27.43;;;;;;;;;;4975686;28;20209;-51
2023/12/29 05:30:32;;;;;;;246.60;35.60;;;;;;;;;;4976057;28;20240;-51
2023/12/29 05:32:58;;;;;;;217.43;30.13;;;;;;;;;;4985753;28;20186;-51
2023/12/29 05:35:24;;;;;;;259.20;38.17;;;;;;;;;;4976548;28;20299;-51
2023/12/29 05:37:50;;;;;;;280.97;40.27;;;;;;;;;;4985404;28;20244;-51
2023/12/29 05:40:16;;;;;;;220.13;31.27;;;;;;;;;;4972589;28;20229;-50
2023/12/29 05:42:42;;;;;;;197.63;27.77;;;;;;;;;;4972483;28;20185;-51
2023/12/29 05:45:08;;;;;;;235.63;34.13;;;;;;;;;;4979375;28;20192;-51
2023/12/29 05:47:34;;;;;;;212.37;30.07;;;;;;;;;;4982177;28;20327;-51
2023/12/29 05:50:00;;;;;;;188.73;26.30;;;;;;;;;;4982229;28;20751;-50
2023/12/29 05:52:26;;;;;;;222.37;32.73;;;;;;;;;;4975362;28;20245;-51
2023/12/29 05:54:52;;;;;;;237.70;34.40;;;;;;;;;;4978652;28;20353;-51
2023/12/29 05:57:18;;;;;;;198.73;28.47;;;;;;;;;;4976986;28;20186;-51
2023/12/29 05:59:44;;;;;;;195.87;28.03;;;;;;;;;;4980011;28;20738;-51
2023/12/29 06:02:10;;;;;;;187.07;26.77;;;;;;;;;;4980850;28;20209;-51
2023/12/29 06:04:35;;;;;;;211.60;30.77;;;;;;;;;;4978692;28;20224;-51
2023/12/29 06:07:01;;;;;;;213.50;30.07;;;;;;;;;;4977407;28;20209;-51
2023/12/29 06:09:27;;;;;;;274.43;40.23;;;;;;;;;;4973087;28;20690;-51
2023/12/29 06:11:53;;;;;;;195.63;27.67;;;;;;;;;;4979649;28;20188;-51
2023/12/29 06:14:19;;;;;;;230.70;32.43;;;;;;;;;;4978964;28;20430;-51
2023/12/29 06:16:45;;;;;;;213.67;30.27;;;;;;;;;;4980678;28;20357;-51
2023/12/29 06:19:11;;;;;;;204.77;29.30;;;;;;;;;;4978521;28;20327;-51
2023/12/29 06:21:43;;;;;;;225.20;34.17;;;;;;;;;;4977994;28;20185;-51
2023/12/29 06:24:10;;;;;;;187.73;27.57;;;;;;;;;;4978761;28;20217;-51
2023/12/29 06:26:41;;;;;;;206.13;30.43;;;;;;;;;;4971689;28;20657;-51
2023/12/29 06:29:07;;;;;;;260.53;39.03;;;;;;;;;;4983847;28;20221;-51
2023/12/29 06:31:33;;;;;;;294.50;44.43;;;;;;;;;;4978094;28;20209;-51
2023/12/29 06:34:00;;;;;;;218.60;32.17;;;;;;;;;;4979915;28;20216;-51
2023/12/29 06:36:26;;;;;;;214.63;30.30;;;;;;;;;;4979477;28;20206;-51
2023/12/29 06:38:52;;;;;;;198.63;28.37;;;;;;;;;;4975935;28;20216;-51
2023/12/29 06:41:18;;;;;;;209.87;29.53;;;;;;;;;;4975780;28;20692;-51
2023/12/29 06:43:45;;;;;;;269.93;39.67;;;;;;;;;;4976556;28;20260;-51
2023/12/29 06:46:13;;;;;;;225.63;32.43;;;;;;;;;;4983381;28;20225;-51
2023/12/29 06:48:39;;;;;;;275.10;40.67;;;;;;;;;;4987659;28;20217;-51
2023/12/29 06:51:06;;;;;;;219.50;32.73;;;;;;;;;;4976958;28;20678;-50
2023/12/29 06:53:32;;;;;;;212.30;30.67;;;;;;;;;;4983596;28;20209;-51
2023/12/29 06:55:58;;;;;;;175.27;25.30;;;;;;;;;;4985533;28;20221;-50
2023/12/29 06:58:24;;;;;;;197.13;27.67;;;;;;;;;;4978583;28;20582;-51
2023/12/29 07:00:49;;;;;;;211.20;30.57;;;;;;;;;;4985280;28;20684;-51
2023/12/29 07:03:15;;;;;;;194.77;28.30;;;;;;;;;;4981933;28;20185;-51
2023/12/29 07:05:41;;;;;;;210.03;29.87;;;;;;;;;;4977207;28;20237;-51
2023/12/29 07:08:07;;;;;;;193.50;27.30;;;;;;;;;;4986006;28;20213;-50
2023/12/29 07:10:33;;;;;;;430.77;66.13;;;;;;;;;;4961421;28;20489;-50
2023/12/29 07:12:59;;;;;;;265.50;38.50;;;;;;;;;;4960281;28;20292;-51
2023/12/29 07:15:25;;;;;;;241.77;34.43;;;;;;;;;;4966551;28;20217;-51
2023/12/29 07:17:51;;;;;;;212.87;30.23;;;;;;;;;;4973945;28;20680;-50
2023/12/29 07:20:17;;;;;;;223.00;32.17;;;;;;;;;;4970488;28;20254;-50
2023/12/29 07:22:43;;;;;;;181.97;27.50;;;;;;;;;;4974330;28;20243;-51
2023/12/29 07:25:11;;;;;;;179.27;25.17;;;;;;;;;;4965160;28;20820;-51
2023/12/29 07:27:37;;;;;;;236.40;34.70;;;;;;;;;;4968384;28;20277;-51
2023/12/29 07:30:03;;;;;;;180.70;25.83;;;;;;;;;;4978818;28;20602;-51
2023/12/29 07:32:29;;;;;;;206.73;28.83;;;;;;;;;;4971010;28;20508;-51
2023/12/29 07:34:56;;;;;;;175.07;24.67;;;;;;;;;;4972698;28;20504;-50
2023/12/29 07:37:21;;;;;;;207.07;29.53;;;;;;;;;;4971505;28;20222;-50
2023/12/29 07:39:48;;;;;;;222.93;32.77;;;;;;;;;;4969396;28;20562;-50
2023/12/29 07:42:16;;;;;;;228.77;33.60;;;;;;;;;;4958755;28;20182;-50
2023/12/29 07:44:42;;;;;;;318.30;46.67;;;;;;;;;;4966863;28;20251;-51
2023/12/29 07:47:10;;;;;;;237.30;35.50;;;;;;;;;;4960803;28;20225;-50
2023/12/29 07:49:36;;;;;;;275.17;39.47;;;;;;;;;;4964536;28;20288;-50
2023/12/29 07:52:02;;;;;;;184.20;26.10;;;;;;;;;;4964698;28;20220;-50
2023/12/29 07:54:28;;;;;;;303.17;45.40;;;;;;;;;;4969685;28;20194;-50
2023/12/29 07:56:54;;;;;;;161.17;23.33;;;;;;;;;;4969402;28;20205;-50
2023/12/29 07:59:20;;;;;;;151.40;21.27;;;;;;;;;;4978331;28;20231;-49
2023/12/29 08:01:46;;;;;;;150.33;21.47;;;;;;;;;;4988971;28;20584;-49
2023/12/29 08:04:11;;;;;;;171.83;24.23;;;;;;;;;;4988871;28;20266;-50
2023/12/29 08:06:38;;;;;;;171.27;24.03;;;;;;;;;;4988760;28;20644;-49
2023/12/29 08:09:04;;;;;;;155.07;22.47;;;;;;;;;;4989279;28;20204;-48
2023/12/29 08:11:30;;;;;;;155.83;22.30;;;;;;;;;;4988994;28;20221;-49
2023/12/29 08:13:56;;;;;;;129.90;18.00;;;;;;;;;;4988804;28;20244;-50
2023/12/29 08:16:22;;;;;;;144.90;20.67;;;;;;;;;;4988882;28;20716;-49
2023/12/29 08:18:50;;;;;;;135.93;20.40;;;;;;;;;;4988463;28;20230;-50
2023/12/29 08:21:22;;;;;;;154.30;21.43;;;;;;;;;;4989320;28;20188;-50
2023/12/29 08:23:48;;;;;;;144.60;20.30;;;;;;;;;;4988743;28;20214;-49
2023/12/29 08:26:14;;;;;;;154.83;22.17;;;;;;;;;;4988315;28;20251;-49
2023/12/29 08:29:06;;;;;;;100.10;13.80;;;;;;;;;;4989515;28;20225;-50
2023/12/29 08:31:32;;;;;;;162.23;22.70;;;;;;;;;;4988198;28;20261;-50
2023/12/29 08:33:58;;;;;;;135.80;19.83;;;;;;;;;;4988478;28;20696;-49
2023/12/29 08:36:24;;;;;;;157.47;22.67;;;;;;;;;;4988975;28;20291;-50
2023/12/29 08:38:50;;;;;;;134.93;19.03;;;;;;;;;;4988437;28;20401;-50
2023/12/29 08:41:16;;;;;;;133.60;18.87;;;;;;;;;;4987959;28;20733;-50
2023/12/29 08:43:42;;;;;;;155.13;22.60;;;;;;;;;;4988446;28;20295;-50
2023/12/29 08:46:08;;;;;;;147.07;20.90;;;;;;;;;;4987937;28;20225;-49
2023/12/29 08:48:34;;;;;;;188.77;26.03;;;;;;;;;;4988435;28;20209;-50
2023/12/29 08:51:01;;;;;;;156.77;23.07;;;;;;;;;;4988169;28;20190;-54
2023/12/29 08:53:27;;;;;;;148.47;20.93;;;;;;;;;;4988422;28;20217;-49
2023/12/29 08:55:53;;;;;;;158.23;22.53;;;;;;;;;;4989180;28;20320;-50
2023/12/29 08:58:19;;;;;;;174.73;24.20;;;;;;;;;;5007493;28;20318;-50
2023/12/29 09:00:44;;;;;;;168.50;23.47;;;;;;;;;;5002536;28;20240;-50
2023/12/29 09:03:10;;;;;;;170.40;24.23;;;;;;;;;;4988187;28;20668;-51
2023/12/29 09:05:36;;;;;;;170.40;23.90;;;;;;;;;;4987394;28;20225;-51
2023/12/29 09:08:02;;;;;;;141.37;19.77;;;;;;;;;;4987640;28;20316;-51
2023/12/29 09:10:28;;;;;;;167.67;23.40;;;;;;;;;;4987884;28;20307;-51
2023/12/29 09:12:54;;;;;;;169.13;23.87;;;;;;;;;;4971598;28;20305;-51
2023/12/29 09:15:20;;;;;;;133.23;19.13;;;;;;;;;;4988457;28;20285;-51
2023/12/29 09:17:46;;;;;;;177.33;24.20;;;;;;;;;;4987906;28;20209;-51
2023/12/29 09:20:14;;;;;;;174.77;24.60;;;;;;;;;;4987460;28;20661;-51
2023/12/29 09:22:40;;;;;;;158.40;22.23;;;;;;;;;;4994972;28;20217;-51
2023/12/29 09:25:06;;;;;;;167.73;24.37;;;;;;;;;;5000439;28;20219;-50
2023/12/29 09:27:32;;;;;;;182.00;26.83;;;;;;;;;;5001182;28;20189;-51
2023/12/29 09:29:58;;;;;;;128.13;18.20;;;;;;;;;;4997962;28;20247;-50
2023/12/29 09:32:24;;;;;;;153.13;22.03;;;;;;;;;;5007131;28;20251;-51
2023/12/29 09:34:50;;;;;;;135.20;19.07;;;;;;;;;;5007358;28;20308;-50
2023/12/29 09:37:16;;;;;;;166.27;24.23;;;;;;;;;;5006766;28;20212;-51
2023/12/29 09:39:42;;;;;;;158.57;22.57;;;;;;;;;;5006775;28;20275;-51
2023/12/29 09:42:09;;;;;;;152.07;21.23;;;;;;;;;;5007246;28;20681;-52
2023/12/29 09:44:37;;;;;;;157.33;21.97;;;;;;;;;;5006814;28;20319;-51
2023/12/29 09:47:04;;;;;;;128.40;18.73;;;;;;;;;;4994254;28;20576;-50
2023/12/29 09:49:39;;;;;;;149.13;21.40;;;;;;;;;;4989988;28;20743;-51
2023/12/29 09:52:06;;;;;;;123.83;17.63;;;;;;;;;;4987360;28;20209;-52
2023/12/29 09:54:32;;;;;;;169.80;24.20;;;;;;;;;;4987309;28;20165;-50
2023/12/29 09:56:58;;;;;;;146.47;20.60;;;;;;;;;;4988488;28;20213;-50
2023/12/29 09:59:25;;;;;;;146.73;21.00;;;;;;;;;;5006289;28;20228;-50
2023/12/29 10:01:52;;;;;;;130.57;18.80;;;;;;;;;;5008212;28;20358;-50
2023/12/29 10:04:18;;;;;;;140.83;19.67;;;;;;;;;;5010888;28;20223;-50
2023/12/29 10:06:47;;;;;;;149.73;21.77;;;;;;;;;;5010801;28;20180;-51
2023/12/29 10:09:15;;;;;;;159.37;22.57;;;;;;;;;;5007917;28;20893;-50
2023/12/29 10:11:42;;;;;;;131.37;18.33;;;;;;;;;;5010562;28;20271;-50
2023/12/29 10:14:21;;;;;;;152.50;21.30;;;;;;;;;;5010622;28;20738;-50
2023/12/29 10:16:50;;;;;;;150.63;22.00;;;;;;;;;;5007132;28;20228;-50
2023/12/29 10:19:38;;;;;;;154.40;21.55;;;;;;;;;;4990752;28;20695;-50
2023/12/29 10:22:09;;;;;;;143.47;20.47;;;;;;;;;;4991134;28;20244;-50
2023/12/29 10:24:35;;;;;;;125.33;18.20;;;;;;;;;;4990851;28;20168;-50
2023/12/29 10:27:01;;;;;;;129.87;18.63;;;;;;;;;;4991226;28;20169;-50
2023/12/29 10:29:28;;;;;;;137.97;19.73;;;;;;;;;;4995365;28;20270;-50
2023/12/29 10:31:53;;;;;;;158.43;22.70;;;;;;;;;;5006587;28;20220;-51
2023/12/29 10:34:29;;;;;;;136.37;19.30;;;;;;;;;;5010172;28;20231;-51
2023/12/29 10:36:56;;;;;;;145.90;20.83;;;;;;;;;;5010200;28;20343;-51
2023/12/29 10:39:22;;;;;;;151.93;21.83;;;;;;;;;;5010427;28;20208;-50
2023/12/29 10:41:48;;;;;;;158.33;21.87;;;;;;;;;;5009931;28;20271;-51
2023/12/29 10:44:14;;;;;;;153.30;21.37;;;;;;;;;;5010360;28;20307;-51
2023/12/29 10:46:40;;;;;;;162.07;22.90;;;;;;;;;;4995424;28;20224;-51
2023/12/29 10:49:12;;;;;;;137.97;19.77;;;;;;;;;;5003254;28;20222;-50
2023/12/29 10:51:38;;;;;;;140.97;20.13;;;;;;;;;;5009703;28;20176;-51
2023/12/29 10:54:05;;;;;;;167.97;23.77;;;;;;;;;;5010570;28;20240;-50
2023/12/29 10:56:31;;;;;;;155.43;22.23;;;;;;;;;;4991418;28;20217;-50
2023/12/29 10:58:59;;;;;;;161.57;22.67;;;;;;;;;;4989577;28;20369;-51
2023/12/29 11:01:25;;;;;;;139.43;20.10;;;;;;;;;;4989938;28;20323;-50
2023/12/29 11:03:58;;;;;;;142.97;20.33;;;;;;;;;;4990396;28;20541;-50
2023/12/29 11:06:24;;;;;;;37.10;6.73;;;;;;;;;;4991218;28;20193;-50
2023/12/29 11:08:50;;;;;;;31.37;5.77;;;;;;;;;;4991297;28;20573;-51
2023/12/29 11:11:16;;;;;;;22.10;4.33;;;;;;;;;;4991120;28;20213;-50
2023/12/29 11:13:42;;;;;;;37.33;6.73;;;;;;;;;;4990589;28;20228;-50
2023/12/29 11:16:09;;;;;;;43.43;7.83;;;;;;;;;;4991065;28;20455;-51
2023/12/29 11:18:35;;;;;;;31.07;6.20;;;;;;;;;;4990941;28;20207;-51
2023/12/29 11:21:02;;;;;;;43.67;8.17;;;;;;;;;;4996758;28;20636;-51
2023/12/29 11:23:28;;;;;;;35.73;6.37;;;;;;;;;;5006872;28;20340;-50
2023/12/29 11:25:55;;;;;;;31.07;5.90;;;;;;;;;;4991090;28;20660;-51
2023/12/29 11:28:21;;;;;;;36.70;6.77;;;;;;;;;;4991280;28;20707;-51
2023/12/29 11:30:47;;;;;;;53.83;9.30;;;;;;;;;;4990923;28;20217;-50
2023/12/29 11:33:19;;;;;;;45.07;7.90;;;;;;;;;;4991579;28;20458;-49
2023/12/29 11:35:54;;;;;;;42.27;7.77;;;;;;;;;;4990670;28;20600;-50
2023/12/29 11:38:32;;;;;;;39.30;7.33;;;;;;;;;;4993984;28;20298;-50
2023/12/29 11:41:14;;;;;;;38.27;6.87;;;;;;;;;;5010151;28;20244;-50
2023/12/29 11:43:40;;;;;;;36.60;6.60;;;;;;;;;;5010517;28;20223;-50
2023/12/29 11:46:06;;;;;;;36.83;6.87;;;;;;;;;;5010264;28;20208;-50
2023/12/29 11:48:50;;;;;;;41.13;7.40;;;;;;;;;;5009993;28;20208;-49
2023/12/29 11:51:29;;;;;;;37.70;6.77;;;;;;;;;;5010763;28;20532;-50
2023/12/29 11:53:55;;;;;;;44.53;8.03;;;;;;;;;;4992893;28;20686;-50
2023/12/29 11:56:21;;;;;;;76.37;12.10;;;;;;;;;;5009936;28;20250;-50
2023/12/29 11:58:47;;;;;;;171.27;25.03;;;;;;;;;;4990658;28;20240;-50
2023/12/29 12:01:13;;;;;;;159.57;23.13;;;;;;;;;;5007729;28;20209;-50
2023/12/29 12:03:39;;;;;;;163.07;22.90;;;;;;;;;;5006805;28;20208;-50
2023/12/29 12:06:04;;;;;;;149.10;21.70;;;;;;;;;;4991880;28;20178;-50
2023/12/29 12:08:34;;;;;;;148.63;21.43;;;;;;;;;;4993390;28;20225;-50
2023/12/29 12:11:20;;;;;;;162.60;22.93;;;;;;;;;;5005650;28;20228;-50
2023/12/29 12:13:46;;;;;;;174.83;24.90;;;;;;;;;;4988790;28;20283;-50
2023/12/29 12:16:31;;;;;;;188.10;26.07;;;;;;;;;;4988673;28;20699;-50
2023/12/29 12:18:57;;;;;;;176.70;25.10;;;;;;;;;;4988530;28;20225;-50
2023/12/29 12:21:24;;;;;;;179.30;25.00;;;;;;;;;;4988933;28;20186;-50
2023/12/29 12:23:50;;;;;;;116.70;16.73;;;;;;;;;;4988550;28;20221;-50
2023/12/29 12:26:17;;;;;;;119.23;17.23;;;;;;;;;;4987238;28;20236;-49
2023/12/29 12:28:45;;;;;;;132.73;19.57;;;;;;;;;;4988585;28;20213;-50
2023/12/29 12:31:13;;;;;;;183.73;26.70;;;;;;;;;;4988257;28;20249;-51
2023/12/29 12:33:39;;;;;;;187.50;26.27;;;;;;;;;;4988135;28;20205;-51
2023/12/29 12:36:06;;;;;;;148.47;20.73;;;;;;;;;;4988225;28;20279;-52
2023/12/29 12:38:33;;;;;;;158.43;22.00;;;;;;;;;;4988072;28;20225;-52
2023/12/29 12:41:09;;;;;;;126.33;18.23;;;;;;;;;;4988145;28;20592;-50
2023/12/29 12:43:36;;;;;;;143.17;20.03;;;;;;;;;;4988593;28;20740;-49
2023/12/29 12:46:03;;;;;;;159.20;22.70;;;;;;;;;;4989558;28;20217;-50
2023/12/29 12:48:45;;;;;;;149.57;21.40;;;;;;;;;;5004415;28;20630;-50
2023/12/29 12:51:12;;;;;;;158.40;22.17;;;;;;;;;;5002817;28;20188;-50
2023/12/29 12:53:41;;;;;;;182.87;26.20;;;;;;;;;;5007664;28;20278;-50
2023/12/29 12:56:07;;;;;;;152.33;21.20;;;;;;;;;;5007420;28;20223;-50
2023/12/29 12:58:33;;;;;;;159.37;22.83;;;;;;;;;;5007357;28;20223;-50
2023/12/29 13:01:00;;;;;;;142.77;20.07;;;;;;;;;;5007071;28;20754;-50
2023/12/29 13:03:26;;;;;;;146.37;20.77;;;;;;;;;;4988223;28;20537;-50
2023/12/29 13:05:53;;;;;;;146.57;21.37;;;;;;;;;;4988640;28;20180;-50
2023/12/29 13:08:20;;;;;;;151.97;21.23;;;;;;;;;;4987550;28;20579;-50
2023/12/29 13:10:45;;;;;;;177.13;24.67;;;;;;;;;;4987512;28;20225;-50
2023/12/29 13:13:12;;;;;;;166.03;22.90;;;;;;;;;;4987517;28;20225;-49
2023/12/29 13:15:50;;;;;;;170.33;23.90;;;;;;;;;;4987440;28;20584;-50
2023/12/29 13:18:18;;;;;;;132.27;18.57;;;;;;;;;;4987848;28;20289;-50
2023/12/29 13:20:45;;;;;;;125.07;17.53;;;;;;;;;;4988036;28;20221;-50
2023/12/29 13:23:11;;;;;;;136.47;19.80;;;;;;;;;;4987733;28;20366;-50
2023/12/29 13:25:40;;;;;;;144.07;20.20;;;;;;;;;;4987687;28;20241;-50
2023/12/29 13:28:06;;;;;;;132.70;19.10;;;;;;;;;;4987623;28;20225;-50
2023/12/29 13:30:33;;;;;;;164.73;23.27;;;;;;;;;;4987041;28;20470;-50
2023/12/29 13:32:59;;;;;;;142.03;20.13;;;;;;;;;;4987768;28;20184;-50
2023/12/29 13:35:25;;;;;;;148.80;21.37;;;;;;;;;;4987238;28;21134;-50
2023/12/29 13:37:55;;;;;;;139.77;19.60;;;;;;;;;;4986800;28;20225;-50
2023/12/29 13:40:24;;;;;;;173.60;24.10;;;;;;;;;;4987519;28;20233;-49
2023/12/29 13:42:52;;;;;;;112.70;15.33;;;;;;;;;;4987803;28;20245;-49
2023/12/29 13:45:18;;;;;;;135.83;18.87;;;;;;;;;;4987801;28;20182;-49
2023/12/29 13:47:46;;;;;;;156.43;22.30;;;;;;;;;;4986830;28;20739;-50
2023/12/29 13:50:12;;;;;;;121.07;17.37;;;;;;;;;;4987188;28;20236;-49
2023/12/29 13:52:38;;;;;;;156.97;22.13;;;;;;;;;;4987443;28;20300;-49
2023/12/29 13:55:06;;;;;;;155.90;21.67;;;;;;;;;;4987379;28;20260;-49
2023/12/29 13:57:32;;;;;;;121.50;17.37;;;;;;;;;;4987084;28;20236;-50
2023/12/29 14:00:12;;;;;;;167.70;23.80;;;;;;;;;;4979331;28;20672;-55
2023/12/29 14:02:40;;;;;;;217.77;31.83;;;;;;;;;;4979292;28;20217;-55
2023/12/29 14:05:12;;;;;;;216.70;31.30;;;;;;;;;;4975753;28;20303;-55
2023/12/29 14:07:43;;;;;;;229.30;34.00;;;;;;;;;;4974977;28;20291;-55